createdAt,value
2019-03-19T00:02:11.607Z,60.20
2019-03-19T00:04:37.672Z,60.40
2019-03-19T00:07:03.685Z,60.60
2019-03-19T00:09:29.720Z,61.30
2019-03-19T00:11:57.814Z,61.10
2019-03-19T00:14:23.641Z,61.00
2019-03-19T00:16:49.689Z,61.10
2019-03-19T00:19:15.695Z,61.10
2019-03-19T00:21:41.738Z,61.10
2019-03-19T00:24:07.757Z,61.20
2019-03-19T00:26:33.773Z,61.20
2019-03-19T00:28:59.799Z,61.20
2019-03-19T00:31:25.842Z,61.40
2019-03-19T00:33:51.884Z,61.50
2019-03-19T00:36:18.000Z,61.70
2019-03-19T00:38:44.009Z,62.10
2019-03-19T00:41:10.047Z,61.90
2019-03-19T00:43:36.075Z,61.90
2019-03-19T00:46:02.223Z,61.90
2019-03-19T00:48:28.242Z,62.00
2019-03-19T00:50:54.317Z,62.30
2019-03-19T00:53:20.323Z,62.10
2019-03-19T00:55:46.338Z,62.20
2019-03-19T00:58:12.369Z,62.30
2019-03-19T01:00:38.379Z,62.40
2019-03-19T01:03:04.421Z,62.40
2019-03-19T01:05:30.523Z,62.70
2019-03-19T01:07:56.568Z,62.70
2019-03-19T01:10:22.667Z,62.90
2019-03-19T01:12:48.947Z,62.90
2019-03-19T01:15:14.999Z,63.00
2019-03-19T01:17:41.036Z,63.10
2019-03-19T01:20:09.947Z,63.30
2019-03-19T01:22:36.360Z,63.60
2019-03-19T01:25:04.658Z,64.20
2019-03-19T01:27:30.692Z,64.70
2019-03-19T01:29:56.706Z,64.40
2019-03-19T01:32:22.717Z,64.30
2019-03-19T01:34:48.751Z,64.30
2019-03-19T01:37:14.781Z,64.30
2019-03-19T01:39:40.855Z,64.40
2019-03-19T01:42:06.949Z,64.50
2019-03-19T01:44:33.001Z,64.90
2019-03-19T01:46:59.037Z,65.00
2019-03-19T01:49:25.173Z,65.10
2019-03-19T01:51:51.189Z,65.60
2019-03-19T01:54:17.216Z,66.20
2019-03-19T01:56:43.223Z,66.60
2019-03-19T01:59:09.289Z,66.10
2019-03-19T02:01:35.382Z,65.90
2019-03-19T02:04:01.403Z,65.80
2019-03-19T02:06:27.443Z,65.70
2019-03-19T02:08:53.469Z,65.70
2019-03-19T02:11:19.513Z,65.70
2019-03-19T02:14:05.720Z,65.70
2019-03-19T02:16:31.874Z,65.70
2019-03-19T02:18:57.990Z,65.90
2019-03-19T02:21:24.077Z,66.20
2019-03-19T02:23:50.090Z,66.10
2019-03-19T02:26:17.077Z,66.30
2019-03-19T02:28:43.248Z,66.60
2019-03-19T02:31:09.267Z,66.60
2019-03-19T02:33:35.329Z,66.50
2019-03-19T02:36:01.448Z,66.60
2019-03-19T02:38:27.472Z,66.90
2019-03-19T02:40:53.492Z,67.10
2019-03-19T02:43:22.652Z,67.40
2019-03-19T02:45:47.460Z,67.40
2019-03-19T02:48:13.606Z,67.90
2019-03-19T02:50:39.625Z,68.40
2019-03-19T02:53:05.645Z,67.90
2019-03-19T02:55:31.677Z,67.80
2019-03-19T02:57:57.795Z,67.70
2019-03-19T03:00:23.816Z,67.60
2019-03-19T03:02:49.863Z,67.70
2019-03-19T03:05:20.070Z,67.70
2019-03-19T03:07:46.176Z,67.60
2019-03-19T03:10:12.605Z,68.10
2019-03-19T03:12:38.629Z,67.90
2019-03-19T03:15:07.156Z,67.90
2019-03-19T03:17:33.217Z,68.00
2019-03-19T03:19:59.524Z,67.90
2019-03-19T03:22:25.921Z,67.90
2019-03-19T03:24:51.963Z,68.00
2019-03-19T03:27:17.996Z,68.20
2019-03-19T03:29:44.032Z,68.50
2019-03-19T03:32:10.071Z,68.70
2019-03-19T03:34:36.104Z,68.80
2019-03-19T03:37:02.169Z,68.70
2019-03-19T03:39:28.386Z,68.50
2019-03-19T03:41:54.439Z,68.60
2019-03-19T03:44:20.572Z,68.60
2019-03-19T03:46:46.593Z,68.60
2019-03-19T03:49:12.632Z,68.60
2019-03-19T03:51:38.671Z,68.60
2019-03-19T03:54:04.713Z,68.70
2019-03-19T03:56:30.742Z,68.70
2019-03-19T03:59:00.952Z,68.70
2019-03-19T04:01:24.851Z,68.60
2019-03-19T04:03:50.976Z,68.60
2019-03-19T04:06:17.003Z,68.60
2019-03-19T04:08:43.058Z,68.60
2019-03-19T04:11:09.090Z,68.70
2019-03-19T04:13:35.112Z,68.90
2019-03-19T04:16:01.252Z,68.80
2019-03-19T04:18:27.381Z,68.80
2019-03-19T04:20:53.405Z,69.00
2019-03-19T04:23:19.442Z,68.90
2019-03-19T04:25:45.467Z,68.90
2019-03-19T04:28:11.554Z,69.10
2019-03-19T04:30:37.577Z,69.30
2019-03-19T04:33:03.719Z,69.30
2019-03-19T04:35:29.745Z,69.40
2019-03-19T04:37:55.848Z,69.50
2019-03-19T04:40:21.872Z,69.50
2019-03-19T04:42:48.202Z,69.60
2019-03-19T04:45:15.423Z,69.50
2019-03-19T04:47:41.633Z,69.60
2019-03-19T04:50:10.270Z,69.60
2019-03-19T04:52:36.316Z,69.70
2019-03-19T04:55:04.645Z,70.00
2019-03-19T04:57:30.693Z,70.00
2019-03-19T04:59:58.958Z,69.90
2019-03-19T05:02:24.679Z,70.00
2019-03-19T05:04:50.701Z,70.00
2019-03-19T05:07:16.729Z,70.20
2019-03-19T05:09:42.847Z,70.20
2019-03-19T05:12:08.882Z,70.10
2019-03-19T05:14:34.977Z,70.20
2019-03-19T05:17:01.127Z,70.10
2019-03-19T05:19:27.161Z,70.10
2019-03-19T05:21:53.180Z,70.50
2019-03-19T05:24:19.238Z,70.40
2019-03-19T05:26:45.279Z,70.40
2019-03-19T05:29:11.643Z,70.50
2019-03-19T05:31:37.812Z,70.80
2019-03-19T05:34:04.003Z,70.70
2019-03-19T05:36:30.058Z,70.80
2019-03-19T05:38:56.175Z,70.70
2019-03-19T05:41:22.201Z,70.70
2019-03-19T05:43:48.238Z,70.70
2019-03-19T05:46:14.404Z,70.80
2019-03-19T05:48:40.432Z,71.00
2019-03-19T05:51:06.579Z,71.10
2019-03-19T05:53:32.656Z,71.00
2019-03-19T05:55:58.762Z,71.10
2019-03-19T05:58:24.889Z,71.30
2019-03-19T06:00:50.947Z,71.30
2019-03-19T06:03:16.982Z,71.30
2019-03-19T06:05:43.018Z,71.40
2019-03-19T06:08:09.136Z,71.50
2019-03-19T06:10:35.287Z,71.70
2019-03-19T06:13:01.360Z,71.60
2019-03-19T06:15:27.537Z,71.70
2019-03-19T06:17:53.557Z,71.70
2019-03-19T06:20:19.863Z,71.80
2019-03-19T06:22:45.922Z,71.90
2019-03-19T06:25:12.492Z,71.80
2019-03-19T06:27:38.567Z,71.80
2019-03-19T06:30:15.924Z,71.90
2019-03-19T06:32:42.063Z,72.10
2019-03-19T06:35:09.710Z,72.50
2019-03-19T06:37:35.781Z,73.20
2019-03-19T06:40:04.939Z,74.00
2019-03-19T06:42:31.025Z,74.60
2019-03-19T06:44:57.054Z,75.20
2019-03-19T06:47:23.181Z,75.50
2019-03-19T06:49:49.236Z,75.40
2019-03-19T06:52:15.354Z,75.00
2019-03-19T06:54:41.435Z,74.30
2019-03-19T06:57:07.664Z,73.30
2019-03-19T06:59:33.694Z,71.90
2019-03-19T07:01:59.740Z,70.60
2019-03-19T07:04:25.776Z,69.40
2019-03-19T07:06:51.813Z,68.10
2019-03-19T07:09:17.893Z,66.40
2019-03-19T07:11:43.933Z,65.20
2019-03-19T07:14:09.978Z,64.00
2019-03-19T07:16:36.038Z,62.50
2019-03-19T07:19:02.083Z,61.20
2019-03-19T07:21:28.121Z,58.80
2019-03-19T07:23:54.180Z,58.40
2019-03-19T07:26:20.251Z,56.80
2019-03-19T07:28:46.283Z,56.30
2019-03-19T07:31:12.349Z,55.80
2019-03-19T07:33:38.372Z,55.50
2019-03-19T07:36:06.198Z,54.10
2019-03-19T07:38:33.462Z,53.60
2019-03-19T07:40:59.798Z,53.40
2019-03-19T07:43:25.846Z,52.60
2019-03-19T07:45:51.865Z,51.70
2019-03-19T07:48:17.946Z,49.50
2019-03-19T07:50:44.119Z,50.00
2019-03-19T07:53:10.143Z,48.20
2019-03-19T07:55:36.458Z,48.00
2019-03-19T07:58:02.866Z,45.50
2019-03-19T08:00:28.912Z,46.10
2019-03-19T08:02:55.210Z,45.20
2019-03-19T08:05:32.253Z,45.30
2019-03-19T08:07:49.185Z,45.70
2019-03-19T08:10:16.447Z,43.30
2019-03-19T08:12:42.491Z,43.50
2019-03-19T08:15:10.823Z,44.00
2019-03-19T08:17:36.880Z,44.30
2019-03-19T08:20:11.022Z,41.60
2019-03-19T08:22:37.157Z,39.90
2019-03-19T08:25:05.571Z,40.20
2019-03-19T08:27:31.603Z,39.50
2019-03-19T08:29:57.628Z,39.00
2019-03-19T08:32:23.972Z,40.60
2019-03-19T08:34:50.010Z,41.40
2019-03-19T08:37:16.056Z,41.20
2019-03-19T08:39:42.080Z,40.50
2019-03-19T08:42:08.097Z,41.00
2019-03-19T08:44:34.120Z,39.50
2019-03-19T08:47:00.155Z,39.70
2019-03-19T08:49:26.174Z,38.00
2019-03-19T08:51:52.274Z,37.80
2019-03-19T08:54:18.335Z,38.00
2019-03-19T08:56:44.361Z,33.90
2019-03-19T08:59:10.378Z,36.60
2019-03-19T09:01:36.407Z,34.90
2019-03-19T09:04:02.419Z,35.20
2019-03-19T09:06:28.435Z,34.40
2019-03-19T09:08:54.487Z,34.60
2019-03-19T09:11:21.582Z,35.00
2019-03-19T09:13:47.626Z,35.20
2019-03-19T09:16:13.666Z,34.80
2019-03-19T09:18:39.698Z,34.50
2019-03-19T09:21:05.718Z,33.70
2019-03-19T09:23:33.304Z,33.60
2019-03-19T09:25:59.505Z,33.40
2019-03-19T09:28:25.552Z,30.30
2019-03-19T09:30:51.571Z,31.30
2019-03-19T09:33:17.605Z,31.60
2019-03-19T09:35:43.650Z,31.50
2019-03-19T09:38:10.086Z,31.20
2019-03-19T09:40:36.177Z,29.80
2019-03-19T09:43:24.633Z,30.30
2019-03-19T09:45:50.716Z,30.30
2019-03-19T09:48:16.745Z,30.60
2019-03-19T09:50:42.894Z,30.60
2019-03-19T09:53:08.941Z,29.50
2019-03-19T09:55:34.960Z,29.80
2019-03-19T09:58:00.987Z,30.00
2019-03-19T10:00:27.009Z,29.20
2019-03-19T10:02:53.044Z,27.30
2019-03-19T10:05:19.373Z,26.60
2019-03-19T10:07:45.484Z,26.20
2019-03-19T10:10:17.118Z,28.50
2019-03-19T10:12:43.166Z,28.80
2019-03-19T10:15:09.716Z,29.00
2019-03-19T10:17:35.919Z,29.10
2019-03-19T10:20:05.522Z,28.60
2019-03-19T10:22:31.706Z,28.10
2019-03-19T10:24:57.745Z,28.50
2019-03-19T10:27:23.775Z,26.20
2019-03-19T10:29:49.827Z,27.80
2019-03-19T10:32:15.861Z,26.80
2019-03-19T10:34:41.905Z,24.40
2019-03-19T10:37:07.927Z,23.80
2019-03-19T10:39:33.995Z,25.50
2019-03-19T10:42:00.136Z,26.90
2019-03-19T10:44:26.409Z,25.40
2019-03-19T10:46:52.477Z,26.70
2019-03-19T10:49:18.544Z,27.10
2019-03-19T10:51:47.759Z,26.90
2019-03-19T10:54:16.513Z,24.50
2019-03-19T10:56:44.092Z,24.50
2019-03-19T10:59:10.217Z,25.10
2019-03-19T11:01:36.234Z,25.30
2019-03-19T11:04:03.246Z,25.00
2019-03-19T11:06:29.292Z,24.60
2019-03-19T11:08:57.847Z,25.90
2019-03-19T11:11:24.013Z,25.50
2019-03-19T11:13:50.030Z,25.40
2019-03-19T11:16:16.097Z,25.70
2019-03-19T11:18:42.158Z,25.20
2019-03-19T11:21:08.203Z,24.90
2019-03-19T11:23:35.120Z,24.90
2019-03-19T11:26:01.235Z,25.20
2019-03-19T11:28:27.246Z,25.60
2019-03-19T11:30:53.292Z,26.10
2019-03-19T11:33:19.340Z,26.60
2019-03-19T11:35:45.770Z,27.30
2019-03-19T11:38:11.930Z,28.00
2019-03-19T11:40:38.044Z,29.00
2019-03-19T11:43:04.183Z,29.40
2019-03-19T11:45:30.228Z,29.80
2019-03-19T11:47:56.255Z,29.90
2019-03-19T11:50:26.795Z,30.20
2019-03-19T11:52:53.213Z,29.70
2019-03-19T11:55:19.344Z,29.50
2019-03-19T11:57:45.464Z,29.80
2019-03-19T12:00:24.681Z,29.90
2019-03-19T12:02:50.723Z,29.60
2019-03-19T12:05:16.851Z,29.50
2019-03-19T12:07:43.174Z,29.60
2019-03-19T12:10:09.425Z,29.60
2019-03-19T12:12:35.736Z,30.00
2019-03-19T12:15:03.462Z,30.00
2019-03-19T12:17:29.486Z,28.50
2019-03-19T12:19:55.510Z,28.60
2019-03-19T12:22:21.554Z,27.70
2019-03-19T12:24:48.541Z,27.90
2019-03-19T12:27:14.575Z,27.40
2019-03-19T12:29:40.585Z,28.20
2019-03-19T12:32:06.648Z,27.90
2019-03-19T12:34:32.656Z,27.10
2019-03-19T12:36:58.686Z,27.10
2019-03-19T12:39:24.694Z,27.90
2019-03-19T12:41:50.767Z,27.30
2019-03-19T12:44:16.785Z,27.50
2019-03-19T12:46:42.825Z,27.20
2019-03-19T12:49:08.887Z,26.90
2019-03-19T12:51:34.992Z,27.00
2019-03-19T12:54:01.084Z,26.80
2019-03-19T12:56:27.214Z,26.50
2019-03-19T12:58:53.238Z,26.40
2019-03-19T13:01:19.390Z,25.70
2019-03-19T13:03:45.806Z,25.90
2019-03-19T13:06:11.853Z,25.30
2019-03-19T13:08:37.878Z,25.30
2019-03-19T13:11:03.947Z,25.50
2019-03-19T13:13:29.976Z,26.30
2019-03-19T13:15:56.025Z,25.60
2019-03-19T13:18:22.066Z,25.90
2019-03-19T13:20:48.099Z,26.40
2019-03-19T13:23:14.103Z,26.50
2019-03-19T13:25:40.150Z,27.20
2019-03-19T13:28:06.200Z,27.90
2019-03-19T13:30:32.241Z,28.30
2019-03-19T13:32:58.413Z,28.60
2019-03-19T13:35:24.711Z,28.30
2019-03-19T13:37:50.888Z,27.80
2019-03-19T13:40:17.830Z,27.50
2019-03-19T13:42:44.053Z,28.00
2019-03-19T13:45:13.946Z,28.70
2019-03-19T13:47:39.974Z,29.20
2019-03-19T13:50:08.531Z,29.20
2019-03-19T13:52:34.565Z,29.10
2019-03-19T13:55:00.607Z,29.00
2019-03-19T13:57:26.632Z,28.90
2019-03-19T13:59:52.680Z,28.90
2019-03-19T14:02:19.042Z,28.00
2019-03-19T14:04:45.144Z,27.80
2019-03-19T14:07:11.223Z,28.20
2019-03-19T14:09:37.528Z,28.30
2019-03-19T14:12:03.672Z,28.20
2019-03-19T14:14:29.693Z,28.10
2019-03-19T14:16:55.740Z,28.10
2019-03-19T14:19:21.767Z,28.00
2019-03-19T14:21:47.798Z,28.00
2019-03-19T14:24:21.520Z,28.10
2019-03-19T14:26:50.354Z,28.20
2019-03-19T14:29:16.449Z,28.60
2019-03-19T14:31:42.518Z,28.80
2019-03-19T14:34:08.547Z,29.10
2019-03-19T14:36:34.597Z,29.60
2019-03-19T14:39:00.968Z,29.90
2019-03-19T14:41:29.839Z,30.00
2019-03-19T14:43:55.872Z,30.20
2019-03-19T14:46:21.898Z,30.50
2019-03-19T14:48:47.954Z,31.60
2019-03-19T14:51:14.008Z,32.20
2019-03-19T14:53:40.046Z,32.30
2019-03-19T14:56:06.098Z,33.10
2019-03-19T14:58:32.295Z,32.80
2019-03-19T15:00:58.299Z,33.00
2019-03-19T15:03:24.345Z,34.00
2019-03-19T15:05:50.371Z,33.60
2019-03-19T15:08:17.810Z,33.70
2019-03-19T15:10:43.859Z,33.80
2019-03-19T15:13:09.990Z,33.80
2019-03-19T15:15:36.041Z,34.80
2019-03-19T15:18:02.059Z,34.90
2019-03-19T15:20:28.085Z,35.20
2019-03-19T15:22:54.124Z,35.00
2019-03-19T15:25:20.864Z,35.10
2019-03-19T15:27:46.981Z,35.60
2019-03-19T15:30:16.814Z,36.40
2019-03-19T15:32:43.463Z,36.10
2019-03-19T15:35:09.886Z,36.30
2019-03-19T15:37:36.832Z,37.30
2019-03-19T15:40:06.691Z,37.50
2019-03-19T15:42:32.809Z,37.90
2019-03-19T15:44:59.136Z,37.50
2019-03-19T15:47:25.171Z,37.40
2019-03-19T15:49:54.269Z,36.90
2019-03-19T15:52:20.310Z,38.00
2019-03-19T15:54:46.339Z,37.50
2019-03-19T15:57:12.370Z,37.80
2019-03-19T15:59:38.514Z,37.50
2019-03-19T16:02:04.600Z,37.50
2019-03-19T16:04:30.620Z,37.50
2019-03-19T16:06:56.680Z,38.20
2019-03-19T16:09:22.738Z,38.10
2019-03-19T16:11:49.096Z,38.50
2019-03-19T16:14:15.130Z,38.50
2019-03-19T16:16:41.308Z,38.70
2019-03-19T16:19:07.496Z,38.60
2019-03-19T16:21:33.540Z,38.80
2019-03-19T16:26:56.618Z,39.20
2019-03-19T16:29:22.663Z,38.90
2019-03-19T16:31:51.148Z,39.30
2019-03-19T16:34:16.597Z,39.50
2019-03-19T16:36:43.000Z,39.50
2019-03-19T16:39:09.234Z,39.80
2019-03-19T16:41:35.269Z,40.00
2019-03-19T16:44:01.329Z,40.40
2019-03-19T16:46:27.427Z,40.40
2019-03-19T16:48:53.510Z,40.30
2019-03-19T16:51:19.590Z,40.30
2019-03-19T16:53:45.617Z,40.50
2019-03-19T16:56:11.671Z,40.80
2019-03-19T16:58:37.847Z,40.70
2019-03-19T17:01:03.920Z,40.80
2019-03-19T17:03:41.225Z,41.00
2019-03-19T17:06:07.281Z,41.10
2019-03-19T17:08:33.326Z,41.40
2019-03-19T17:10:59.354Z,41.60
2019-03-19T17:13:25.515Z,42.50
2019-03-19T17:15:51.682Z,41.90
2019-03-19T17:18:17.730Z,42.00
2019-03-19T17:20:43.806Z,42.00
2019-03-19T17:23:09.830Z,42.30
2019-03-19T17:25:35.944Z,42.40
2019-03-19T17:28:02.408Z,42.50
2019-03-19T17:30:29.762Z,42.80
2019-03-19T17:32:55.803Z,42.70
2019-03-19T17:35:21.885Z,43.10
2019-03-19T17:37:48.137Z,43.40
2019-03-19T17:40:14.879Z,43.50
2019-03-19T17:42:41.031Z,43.60
2019-03-19T17:45:14.404Z,44.00
2019-03-19T17:47:40.416Z,44.00
2019-03-19T17:50:27.276Z,44.30
2019-03-19T17:52:54.469Z,44.60
2019-03-19T17:55:20.617Z,45.00
2019-03-19T17:57:46.731Z,44.90
2019-03-19T18:00:19.247Z,45.40
2019-03-19T18:02:45.383Z,45.50
2019-03-19T18:05:11.622Z,45.70
2019-03-19T18:07:37.800Z,45.90
2019-03-19T18:10:08.330Z,46.00
2019-03-19T18:12:39.241Z,46.10
2019-03-19T18:15:10.348Z,46.30
2019-03-19T18:17:36.492Z,46.40
2019-03-19T18:20:05.850Z,46.80
2019-03-19T18:22:31.899Z,46.80
2019-03-19T18:24:57.934Z,46.90
2019-03-19T18:27:23.953Z,47.10
2019-03-19T18:29:49.992Z,47.30
2019-03-19T18:32:16.027Z,47.40
2019-03-19T18:34:42.093Z,47.50
2019-03-19T18:37:08.101Z,47.60
2019-03-19T18:39:35.595Z,47.70
2019-03-19T18:42:01.927Z,48.20
2019-03-19T18:44:28.243Z,48.40
2019-03-19T18:46:54.274Z,48.70
2019-03-19T18:49:20.298Z,48.60
2019-03-19T18:51:46.355Z,48.70
2019-03-19T18:54:12.394Z,48.90
2019-03-19T18:56:38.465Z,48.90
2019-03-19T18:59:04.496Z,49.00
2019-03-19T19:01:30.543Z,49.10
2019-03-19T19:03:56.792Z,49.30
2019-03-19T19:06:22.881Z,49.40
2019-03-19T19:09:00.032Z,49.40
2019-03-19T19:11:26.128Z,49.50
2019-03-19T19:13:52.174Z,49.50
2019-03-19T19:16:18.404Z,49.80
2019-03-19T19:18:44.455Z,49.80
2019-03-19T19:21:10.514Z,49.90
2019-03-19T19:23:36.603Z,50.20
2019-03-19T19:26:02.634Z,50.20
2019-03-19T19:28:28.677Z,50.40
2019-03-19T19:30:55.158Z,50.40
2019-03-19T19:33:21.273Z,50.60
2019-03-19T19:35:47.318Z,50.80
2019-03-19T19:38:13.336Z,50.90
2019-03-19T19:40:39.381Z,50.90
2019-03-19T19:43:05.978Z,50.90
2019-03-19T19:45:32.018Z,51.00
2019-03-19T19:47:58.144Z,51.00
2019-03-19T19:50:24.180Z,51.10
2019-03-19T19:52:50.424Z,51.30
2019-03-19T19:55:16.642Z,51.70
2019-03-19T19:57:42.779Z,52.20
2019-03-19T20:00:17.624Z,52.50
2019-03-19T20:02:44.273Z,53.00
2019-03-19T20:05:10.419Z,52.80
2019-03-19T20:07:36.608Z,53.10
2019-03-19T20:10:06.438Z,53.00
2019-03-19T20:12:32.509Z,53.50
2019-03-19T20:14:58.551Z,53.00
2019-03-19T20:17:26.959Z,53.20
2019-03-19T20:19:53.122Z,53.20
2019-03-19T20:22:19.528Z,53.20
2019-03-19T20:24:45.609Z,53.30
2019-03-19T20:27:14.217Z,53.60
2019-03-19T20:29:40.811Z,53.80
2019-03-19T20:32:07.153Z,53.80
2019-03-19T20:34:33.178Z,54.00
2019-03-19T20:36:59.241Z,54.30
2019-03-19T20:39:25.338Z,54.30
2019-03-19T20:41:51.435Z,54.50
2019-03-19T20:44:17.462Z,54.40
2019-03-19T20:46:43.529Z,54.70
2019-03-19T20:49:09.536Z,54.90
2019-03-19T20:51:35.560Z,54.80
2019-03-19T20:54:01.590Z,54.90
2019-03-19T20:56:27.663Z,55.00
2019-03-19T20:58:53.673Z,55.00
2019-03-19T21:01:19.700Z,55.10
2019-03-19T21:03:45.747Z,55.20
2019-03-19T21:06:12.032Z,55.20
2019-03-19T21:08:38.224Z,55.60
2019-03-19T21:11:04.721Z,55.70
2019-03-19T21:13:30.834Z,55.90
2019-03-19T21:15:57.045Z,55.90
2019-03-19T21:18:23.155Z,56.20
2019-03-19T21:20:49.279Z,56.00
2019-03-19T21:23:15.331Z,56.00
2019-03-19T21:25:41.357Z,56.10
2019-03-19T21:28:13.896Z,56.20
2019-03-19T21:30:35.310Z,56.30
2019-03-19T21:33:01.347Z,56.30
2019-03-19T21:35:27.383Z,56.20
2019-03-19T21:37:53.560Z,56.30
2019-03-19T21:40:19.605Z,56.50
2019-03-19T21:42:45.703Z,56.50
2019-03-19T21:45:13.383Z,56.50
2019-03-19T21:47:39.442Z,56.90
2019-03-19T21:50:08.556Z,56.80
2019-03-19T21:52:34.610Z,56.90
2019-03-19T21:55:00.630Z,56.30
2019-03-19T21:57:26.681Z,56.90
2019-03-19T21:59:52.793Z,57.00
2019-03-19T22:02:18.974Z,57.10
2019-03-19T22:04:45.021Z,57.30
2019-03-19T22:07:11.067Z,57.30
2019-03-19T22:09:37.108Z,57.30
2019-03-19T22:12:03.120Z,57.50
2019-03-19T22:14:29.194Z,57.90
2019-03-19T22:16:55.553Z,57.60
2019-03-19T22:19:21.592Z,58.00
2019-03-19T22:21:47.710Z,58.00
2019-03-19T22:24:14.101Z,58.20
2019-03-19T22:26:40.116Z,58.00
2019-03-19T22:29:06.153Z,58.10
2019-03-19T22:31:32.227Z,58.30
2019-03-19T22:33:58.254Z,58.70
2019-03-19T22:36:24.291Z,59.20
2019-03-19T22:38:50.386Z,61.00
2019-03-19T22:41:16.430Z,59.30
2019-03-19T22:43:42.488Z,59.10
2019-03-19T22:46:08.563Z,59.00
2019-03-19T22:48:34.615Z,59.00
2019-03-19T22:51:00.869Z,59.10
2019-03-19T22:53:26.905Z,59.20
2019-03-19T22:55:52.934Z,59.40
2019-03-19T22:58:18.966Z,59.40
2019-03-19T23:00:45.387Z,59.50
2019-03-19T23:03:11.727Z,59.50
2019-03-19T23:05:38.127Z,59.70
2019-03-19T23:08:04.356Z,59.60
2019-03-19T23:10:30.527Z,59.90
2019-03-19T23:12:56.949Z,60.00
2019-03-19T23:15:23.139Z,60.00
2019-03-19T23:17:49.278Z,60.20
2019-03-19T23:20:15.345Z,59.60
2019-03-19T23:22:41.416Z,60.40
2019-03-19T23:25:07.678Z,60.50
2019-03-19T23:27:33.726Z,60.60
2019-03-19T23:29:59.769Z,60.70
2019-03-19T23:32:25.817Z,60.70
2019-03-19T23:34:51.943Z,60.80
2019-03-19T23:37:17.954Z,60.80
2019-03-19T23:39:44.000Z,61.00
2019-03-19T23:42:10.016Z,61.10
2019-03-19T23:44:36.053Z,61.30
2019-03-19T23:47:02.070Z,61.50
2019-03-19T23:49:28.112Z,61.30
2019-03-19T23:52:14.013Z,61.50
2019-03-19T23:54:40.051Z,61.50
2019-03-19T23:57:06.080Z,61.70
2019-03-19T23:59:32.121Z,61.90
